page 4691 of 1004039 registered users

eBook PostsUsers

  1. 0cousin2music registered @ 2012-11-30 03:36:50, last login @ 2012-11-30 03:36:50
  2. 0sackdollar37 registered @ 2012-11-30 03:38:06, last login @ 2012-11-30 03:38:06
  3. 0mask9helen registered @ 2012-11-30 03:38:32, last login @ 2012-11-30 03:38:32
  4. 0cactus3conga registered @ 2012-11-30 03:39:30, last login @ 2012-11-30 03:39:30
  5. 0quill78card registered @ 2012-11-30 03:41:14, last login @ 2012-11-30 03:41:14
  6. 0pear5drop registered @ 2012-11-30 03:42:53, last login @ 2012-11-30 03:42:53
  7. 0Kraxus registered @ 2012-11-30 03:43:16, last login @ 2012-11-30 03:44:17
  8. 0zipper43hawk registered @ 2012-11-30 03:43:48, last login @ 2012-11-30 03:43:48
  9. 0celery45pantry registered @ 2012-11-30 03:45:57, last login @ 2012-11-30 03:45:57
  10. 0celerysampan5 registered @ 2012-11-30 03:48:44, last login @ 2012-11-30 03:48:44
  11. 0coil4belt registered @ 2012-11-30 03:49:02, last login @ 2012-11-30 03:49:02
  12. 0turtle03shame registered @ 2012-11-30 03:49:36, last login @ 2012-11-30 03:49:36
  13. 0washmusic78 registered @ 2012-11-30 03:50:37, last login @ 2012-11-30 03:50:37
  14. 0tigercinema9 registered @ 2012-11-30 03:50:56, last login @ 2012-11-30 03:50:56
  15. 0periodmap71 registered @ 2012-11-30 03:50:59, last login @ 2012-11-30 03:50:59
  16. 0claus27whip registered @ 2012-11-30 03:51:11, last login @ 2012-11-30 03:51:11
  17. 0parceldead7 registered @ 2012-11-30 03:51:38, last login @ 2012-11-30 03:51:38
  18. 0nailguitar4 registered @ 2012-11-30 03:52:37, last login @ 2012-11-30 03:52:37
  19. 0fontmodem71 registered @ 2012-11-30 03:53:54, last login @ 2012-11-30 03:53:54
  20. 0leg79sled registered @ 2012-11-30 03:53:58, last login @ 2012-11-30 03:53:58
  21. 0fatdew8 registered @ 2012-11-30 03:54:12, last login @ 2012-11-30 03:54:12
  22. 0saladdenim89 registered @ 2012-11-30 03:54:19, last login @ 2012-11-30 03:54:19
  23. 0heavengum4 registered @ 2012-11-30 03:54:35, last login @ 2012-11-30 03:54:35
  24. 0beliefswing18 registered @ 2012-11-30 03:55:51, last login @ 2012-11-30 03:55:51
  25. 0foam9octave registered @ 2012-11-30 03:57:19, last login @ 2012-11-30 03:57:19
  26. 0wire29soda registered @ 2012-11-30 03:58:18, last login @ 2012-11-30 03:58:18
  27. 0minejason3 registered @ 2012-11-30 03:58:40, last login @ 2012-11-30 03:58:40
  28. 0pea11ice registered @ 2012-11-30 04:01:06, last login @ 2012-11-30 04:01:06
  29. 0skinsmoke8 registered @ 2012-11-30 04:01:40, last login @ 2012-11-30 04:01:40
  30. 0thomas0israel registered @ 2012-11-30 04:04:10, last login @ 2012-11-30 04:04:10
  31. 0sonjakelly registered @ 2012-11-30 04:04:18, last login @ 2012-11-30 04:04:18
  32. 0russia1wound registered @ 2012-11-30 04:04:51, last login @ 2012-11-30 04:04:51
  33. 0shirt3owner registered @ 2012-11-30 04:04:57, last login @ 2012-11-30 04:04:57
  34. 0bumper17colt registered @ 2012-11-30 04:05:59, last login @ 2012-11-30 04:05:59
  35. 0jaguar41puma registered @ 2012-11-30 04:06:11, last login @ 2012-11-30 04:06:11
  36. 0lier2kayak registered @ 2012-11-30 04:06:46, last login @ 2012-11-30 04:06:46
  37. 0orange5eel registered @ 2012-11-30 04:07:33, last login @ 2012-11-30 04:07:33
  38. 0lenascaraykjm registered @ 2012-11-30 04:09:53, last login @ 2012-11-30 04:09:53
  39. 0frankhinton819 registered @ 2012-11-30 04:10:44, last login @ 2012-11-30 04:10:44
  40. 0chairdesigns106 registered @ 2012-11-30 04:11:49, last login @ 2012-11-30 04:11:49
  41. 0eel36teller registered @ 2012-11-30 04:11:50, last login @ 2012-11-30 04:11:50
  42. 0farmearth77 registered @ 2012-11-30 04:12:51, last login @ 2012-11-30 04:49:48
  43. 0chairtempo5 registered @ 2012-11-30 04:13:15, last login @ 2012-11-30 04:13:15
  44. 0rub8pantry registered @ 2012-11-30 04:13:30, last login @ 2012-11-30 04:13:30
  45. 0income3theory registered @ 2012-11-30 04:13:58, last login @ 2012-11-30 05:00:11
  46. 0nancy62women registered @ 2012-11-30 04:14:08, last login @ 2012-11-30 04:14:08
  47. 0gallon4draw registered @ 2012-11-30 04:14:38, last login @ 2012-11-30 04:14:38
  48. 0bakery68class registered @ 2012-11-30 04:14:58, last login @ 2012-11-30 04:14:58
  49. 0spearmap36 registered @ 2012-11-30 04:15:49, last login @ 2012-11-30 04:39:54
  50. 0oil93tongue registered @ 2012-11-30 04:17:05, last login @ 2012-11-30 04:17:05
  51. 0grip8thread registered @ 2012-11-30 04:17:07, last login @ 2012-11-30 04:17:07
  52. 0magicrecess40 registered @ 2012-11-30 04:17:19, last login @ 2012-11-30 04:17:19
  53. 0pen07bubble registered @ 2012-11-30 04:17:43, last login @ 2012-11-30 04:17:43
  54. 0boat7nylon registered @ 2012-11-30 04:19:24, last login @ 2012-11-30 04:19:24
  55. 0noodle9fog registered @ 2012-11-30 04:19:49, last login @ 2012-11-30 04:19:49
  56. 0baker68path registered @ 2012-11-30 04:20:30, last login @ 2012-11-30 04:20:30
  57. 0denim3collar registered @ 2012-11-30 04:22:20, last login @ 2012-11-30 04:22:20
  58. 0epoxyskin26 registered @ 2012-11-30 04:22:53, last login @ 2012-11-30 04:22:53
  59. 0washsoup24 registered @ 2012-11-30 04:23:06, last login @ 2012-11-30 04:23:06
  60. 0creek9whorl registered @ 2012-11-30 04:23:38, last login @ 2012-11-30 04:23:38
  61. 0east3squid registered @ 2012-11-30 04:24:23, last login @ 2012-11-30 04:24:23
  62. 0memorybotany87 registered @ 2012-11-30 04:24:40, last login @ 2012-11-30 04:38:30
  63. 0route11find registered @ 2012-11-30 04:27:21, last login @ 2012-11-30 04:27:21
  64. 0linda53quit registered @ 2012-11-30 04:28:30, last login @ 2012-11-30 04:28:30
  65. 0party8size registered @ 2012-11-30 04:28:48, last login @ 2012-11-30 04:28:48
  66. 0climbgeese6 registered @ 2012-11-30 04:29:01, last login @ 2012-11-30 04:29:01
  67. 0whorl9pig registered @ 2012-11-30 04:29:16, last login @ 2012-11-30 04:29:16
  68. 0hoodsneeze2 registered @ 2012-11-30 04:29:50, last login @ 2012-11-30 04:29:50
  69. 0yacht5brush registered @ 2012-11-30 04:30:31, last login @ 2012-11-30 04:30:31
  70. 0kettleshell0 registered @ 2012-11-30 04:31:57, last login @ 2012-11-30 04:31:57
  71. 0dill02uncle registered @ 2012-11-30 04:33:48, last login @ 2012-11-30 04:33:48
  72. 0curlerbush09 registered @ 2012-11-30 04:35:33, last login @ 2012-11-30 04:35:33
  73. 0alleyarch6 registered @ 2012-11-30 04:38:18, last login @ 2012-11-30 04:38:18
  74. 0litterplough16 registered @ 2012-11-30 04:38:54, last login @ 2012-11-30 04:38:54
  75. 0lockcost85 registered @ 2012-11-30 04:39:36, last login @ 2012-11-30 04:39:36
  76. 0juryconga84 registered @ 2012-11-30 04:39:38, last login @ 2012-11-30 04:39:38
  77. 0pinktickets2013 registered @ 2012-11-30 04:41:14, last login @ 2012-11-30 04:55:05
  78. 0fibretub90 registered @ 2012-11-30 04:41:29, last login @ 2012-11-30 04:41:29
  79. 0throne12cinema registered @ 2012-11-30 04:42:53, last login @ 2012-11-30 04:42:53
  80. 0carrotrobert9 registered @ 2012-11-30 04:43:10, last login @ 2012-11-30 04:43:10
  81. 0oil6makeup registered @ 2012-11-30 04:43:54, last login @ 2012-11-30 04:43:54
  82. 0oniontext0 registered @ 2012-11-30 04:44:26, last login @ 2012-11-30 04:44:26
  83. 0julysoil6 registered @ 2012-11-30 04:46:30, last login @ 2012-11-30 04:46:30
  84. 0den2vessel registered @ 2012-11-30 04:47:29, last login @ 2012-11-30 04:47:29
  85. 0yammall96 registered @ 2012-11-30 04:47:54, last login @ 2012-11-30 04:47:54
  86. 0burst56bone registered @ 2012-11-30 04:48:04, last login @ 2012-11-30 04:48:04
  87. 0debt62arrow registered @ 2012-11-30 04:49:06, last login @ 2012-11-30 04:49:06
  88. 0diving49gender registered @ 2012-11-30 04:50:12, last login @ 2012-11-30 04:50:12
  89. 0gluenumber2 registered @ 2012-11-30 04:50:46, last login @ 2012-11-30 04:50:46
  90. 0tights72result registered @ 2012-11-30 04:51:12, last login @ 2012-11-30 04:51:12
  91. 0israel2mask registered @ 2012-11-30 04:51:27, last login @ 2012-11-30 04:51:27
  92. 0owlicicle9 registered @ 2012-11-30 04:52:09, last login @ 2012-11-30 04:52:09
  93. 0black7clam registered @ 2012-11-30 04:52:16, last login @ 2012-11-30 04:52:16
  94. 0pin38burn registered @ 2012-11-30 04:52:55, last login @ 2012-11-30 04:52:55
  95. 0closebaboon1 registered @ 2012-11-30 04:53:09, last login @ 2012-11-30 04:53:09
  96. 0skirt45edward registered @ 2012-11-30 04:53:37, last login @ 2012-11-30 04:53:37
  97. 0newbootsjobswill registered @ 2012-11-30 04:53:59, last login @ 2012-11-30 04:53:59
  98. 0vacuum5spark registered @ 2012-11-30 04:54:11, last login @ 2012-11-30 04:54:11
  99. 0taxi2donkey registered @ 2012-11-30 04:54:26, last login @ 2012-11-30 04:54:26
  100. 0profitrubber0 registered @ 2012-11-30 04:54:31, last login @ 2012-11-30 04:54:31
  101. 0lipdamage80 registered @ 2012-11-30 04:56:22, last login @ 2012-11-30 04:56:22

More...

[4701] [4700] [4699] [4698] [4697] [4696] [4695] [4694] [4693] [4692] [4691] [4690] [4689] [4688] [4687] [4686] [4685] [4684] [4683] [4682] ...[1]
Back to Top